sensor_id;sensor_type;location;lat;lon;timestamp;P1;durP1;ratioP1;P2;durP2;ratioP2
25153;SDS011;47555;51.038;6.280;2022-10-22T00:01:40;4.40;;;3.35;;
25153;SDS011;47555;51.038;6.280;2022-10-22T00:04:06;6.22;;;3.35;;
25153;SDS011;47555;51.038;6.280;2022-10-22T00:06:31;5.80;;;3.30;;
25153;SDS011;47555;51.038;6.280;2022-10-22T00:08:57;5.93;;;2.63;;
25153;SDS011;47555;51.038;6.280;2022-10-22T00:11:23;7.53;;;3.13;;
25153;SDS011;47555;51.038;6.280;2022-10-22T00:13:49;3.63;;;2.80;;
25153;SDS011;47555;51.038;6.280;2022-10-22T00:16:14;5.43;;;2.70;;
25153;SDS011;47555;51.038;6.280;2022-10-22T00:18:43;5.75;;;2.58;;
25153;SDS011;47555;51.038;6.280;2022-10-22T00:21:08;3.45;;;2.65;;
25153;SDS011;47555;51.038;6.280;2022-10-22T00:23:34;5.93;;;2.90;;
25153;SDS011;47555;51.038;6.280;2022-10-22T00:26:00;9.30;;;3.50;;
25153;SDS011;47555;51.038;6.280;2022-10-22T00:28:25;5.18;;;2.90;;
25153;SDS011;47555;51.038;6.280;2022-10-22T00:30:55;9.07;;;3.20;;
25153;SDS011;47555;51.038;6.280;2022-10-22T00:33:21;4.25;;;3.30;;
25153;SDS011;47555;51.038;6.280;2022-10-22T00:35:47;3.70;;;3.00;;
25153;SDS011;47555;51.038;6.280;2022-10-22T00:38:12;5.70;;;3.20;;
25153;SDS011;47555;51.038;6.280;2022-10-22T00:40:38;6.93;;;3.22;;
25153;SDS011;47555;51.038;6.280;2022-10-22T00:43:04;4.50;;;3.10;;
25153;SDS011;47555;51.038;6.280;2022-10-22T00:45:29;6.53;;;2.92;;
25153;SDS011;47555;51.038;6.280;2022-10-22T00:50:38;5.45;;;3.28;;
25153;SDS011;47555;51.038;6.280;2022-10-22T00:53:11;5.30;;;2.83;;
25153;SDS011;47555;51.038;6.280;2022-10-22T00:55:39;6.70;;;3.05;;
25153;SDS011;47555;51.038;6.280;2022-10-22T00:58:07;4.57;;;2.85;;
25153;SDS011;47555;51.038;6.280;2022-10-22T01:00:33;6.47;;;2.80;;
25153;SDS011;47555;51.038;6.280;2022-10-22T01:02:59;6.45;;;3.22;;
25153;SDS011;47555;51.038;6.280;2022-10-22T01:05:30;5.20;;;3.22;;
25153;SDS011;47555;51.038;6.280;2022-10-22T01:08:00;5.07;;;2.67;;
25153;SDS011;47555;51.038;6.280;2022-10-22T01:19:34;6.28;;;3.05;;
25153;SDS011;47555;51.038;6.280;2022-10-22T01:24:56;5.55;;;3.22;;
25153;SDS011;47555;51.038;6.280;2022-10-22T01:30:38;5.57;;;3.30;;
25153;SDS011;47555;51.038;6.280;2022-10-22T01:33:05;11.13;;;3.78;;
25153;SDS011;47555;51.038;6.280;2022-10-22T01:35:33;9.18;;;4.05;;
25153;SDS011;47555;51.038;6.280;2022-10-22T01:38:03;6.75;;;3.35;;
25153;SDS011;47555;51.038;6.280;2022-10-22T01:40:31;10.43;;;3.92;;
25153;SDS011;47555;51.038;6.280;2022-10-22T01:45:23;5.85;;;3.92;;
25153;SDS011;47555;51.038;6.280;2022-10-22T01:50:30;12.00;;;4.10;;
25153;SDS011;47555;51.038;6.280;2022-10-22T01:53:38;6.35;;;3.42;;
25153;SDS011;47555;51.038;6.280;2022-10-22T01:56:36;4.50;;;3.40;;
25153;SDS011;47555;51.038;6.280;2022-10-22T01:59:07;4.70;;;3.13;;
25153;SDS011;47555;51.038;6.280;2022-10-22T02:04:43;4.03;;;3.15;;
25153;SDS011;47555;51.038;6.280;2022-10-22T02:07:17;5.30;;;3.50;;
25153;SDS011;47555;51.038;6.280;2022-10-22T02:09:45;10.48;;;3.60;;
25153;SDS011;47555;51.038;6.280;2022-10-22T02:12:13;6.40;;;3.72;;
25153;SDS011;47555;51.038;6.280;2022-10-22T02:14:41;6.25;;;3.97;;
25153;SDS011;47555;51.038;6.280;2022-10-22T02:17:10;6.07;;;3.58;;
25153;SDS011;47555;51.038;6.280;2022-10-22T02:22:08;7.30;;;3.28;;
25153;SDS011;47555;51.038;6.280;2022-10-22T02:24:34;5.10;;;3.47;;
25153;SDS011;47555;51.038;6.280;2022-10-22T02:27:18;8.32;;;4.00;;
25153;SDS011;47555;51.038;6.280;2022-10-22T02:29:54;6.47;;;3.70;;
25153;SDS011;47555;51.038;6.280;2022-10-22T02:32:32;7.90;;;3.88;;
25153;SDS011;47555;51.038;6.280;2022-10-22T02:35:21;6.43;;;3.42;;
25153;SDS011;47555;51.038;6.280;2022-10-22T02:37:50;9.95;;;4.15;;
25153;SDS011;47555;51.038;6.280;2022-10-22T02:40:17;8.90;;;4.38;;
25153;SDS011;47555;51.038;6.280;2022-10-22T02:42:45;6.80;;;4.10;;
25153;SDS011;47555;51.038;6.280;2022-10-22T02:45:11;7.97;;;3.90;;
25153;SDS011;47555;51.038;6.280;2022-10-22T02:47:37;4.30;;;3.08;;
25153;SDS011;47555;51.038;6.280;2022-10-22T02:50:03;4.43;;;3.50;;
25153;SDS011;47555;51.038;6.280;2022-10-22T02:52:29;5.05;;;3.53;;
25153;SDS011;47555;51.038;6.280;2022-10-22T02:54:54;4.70;;;3.58;;
25153;SDS011;47555;51.038;6.280;2022-10-22T02:57:20;5.90;;;3.63;;
25153;SDS011;47555;51.038;6.280;2022-10-22T02:59:45;7.75;;;4.07;;
25153;SDS011;47555;51.038;6.280;2022-10-22T03:02:11;5.07;;;3.67;;
25153;SDS011;47555;51.038;6.280;2022-10-22T03:04:37;8.57;;;4.03;;
25153;SDS011;47555;51.038;6.280;2022-10-22T03:07:04;6.97;;;3.90;;
25153;SDS011;47555;51.038;6.280;2022-10-22T03:09:34;5.80;;;3.53;;
25153;SDS011;47555;51.038;6.280;2022-10-22T03:12:00;6.22;;;4.15;;
25153;SDS011;47555;51.038;6.280;2022-10-22T03:14:26;6.05;;;3.80;;
25153;SDS011;47555;51.038;6.280;2022-10-22T03:16:51;7.90;;;4.05;;
25153;SDS011;47555;51.038;6.280;2022-10-22T03:19:17;8.05;;;3.67;;
25153;SDS011;47555;51.038;6.280;2022-10-22T03:21:44;6.07;;;4.18;;
25153;SDS011;47555;51.038;6.280;2022-10-22T03:24:19;5.82;;;3.70;;
25153;SDS011;47555;51.038;6.280;2022-10-22T03:27:12;8.05;;;3.78;;
25153;SDS011;47555;51.038;6.280;2022-10-22T03:29:40;4.70;;;3.55;;
25153;SDS011;47555;51.038;6.280;2022-10-22T03:32:06;8.93;;;4.53;;
25153;SDS011;47555;51.038;6.280;2022-10-22T03:34:32;6.53;;;4.32;;
25153;SDS011;47555;51.038;6.280;2022-10-22T03:36:59;6.82;;;3.85;;
25153;SDS011;47555;51.038;6.280;2022-10-22T03:39:26;4.82;;;3.70;;
25153;SDS011;47555;51.038;6.280;2022-10-22T03:41:55;9.90;;;4.10;;
25153;SDS011;47555;51.038;6.280;2022-10-22T03:44:21;7.82;;;3.97;;
25153;SDS011;47555;51.038;6.280;2022-10-22T03:46:47;7.38;;;3.85;;
25153;SDS011;47555;51.038;6.280;2022-10-22T03:49:13;5.40;;;4.03;;
25153;SDS011;47555;51.038;6.280;2022-10-22T03:51:38;5.50;;;3.50;;
25153;SDS011;47555;51.038;6.280;2022-10-22T03:54:04;7.78;;;4.47;;
25153;SDS011;47555;51.038;6.280;2022-10-22T03:56:30;7.63;;;3.50;;
25153;SDS011;47555;51.038;6.280;2022-10-22T03:58:56;6.07;;;3.95;;
25153;SDS011;47555;51.038;6.280;2022-10-22T04:01:23;9.70;;;4.45;;
25153;SDS011;47555;51.038;6.280;2022-10-22T04:03:48;8.02;;;4.00;;
25153;SDS011;47555;51.038;6.280;2022-10-22T04:06:14;10.07;;;4.45;;
25153;SDS011;47555;51.038;6.280;2022-10-22T04:08:41;7.30;;;4.63;;
25153;SDS011;47555;51.038;6.280;2022-10-22T04:11:07;6.13;;;4.30;;
25153;SDS011;47555;51.038;6.280;2022-10-22T04:13:35;9.02;;;4.57;;
25153;SDS011;47555;51.038;6.280;2022-10-22T04:18:43;6.97;;;4.30;;
25153;SDS011;47555;51.038;6.280;2022-10-22T04:21:10;11.02;;;6.32;;
25153;SDS011;47555;51.038;6.280;2022-10-22T04:23:38;7.82;;;4.15;;
25153;SDS011;47555;51.038;6.280;2022-10-22T04:26:05;8.90;;;5.13;;
25153;SDS011;47555;51.038;6.280;2022-10-22T04:28:31;9.20;;;4.40;;
25153;SDS011;47555;51.038;6.280;2022-10-22T04:30:58;7.70;;;4.38;;
25153;SDS011;47555;51.038;6.280;2022-10-22T04:33:26;6.72;;;4.22;;
25153;SDS011;47555;51.038;6.280;2022-10-22T04:35:52;6.55;;;4.00;;
25153;SDS011;47555;51.038;6.280;2022-10-22T04:38:17;8.68;;;4.80;;
25153;SDS011;47555;51.038;6.280;2022-10-22T04:40:43;7.45;;;4.47;;
25153;SDS011;47555;51.038;6.280;2022-10-22T04:43:12;6.88;;;4.55;;
25153;SDS011;47555;51.038;6.280;2022-10-22T04:45:37;7.55;;;4.55;;
25153;SDS011;47555;51.038;6.280;2022-10-22T04:48:03;9.05;;;4.60;;
25153;SDS011;47555;51.038;6.280;2022-10-22T04:50:28;9.07;;;4.40;;
25153;SDS011;47555;51.038;6.280;2022-10-22T04:52:54;6.38;;;4.30;;
25153;SDS011;47555;51.038;6.280;2022-10-22T04:55:20;6.07;;;3.92;;
25153;SDS011;47555;51.038;6.280;2022-10-22T04:57:45;7.40;;;4.80;;
25153;SDS011;47555;51.038;6.280;2022-10-22T05:00:11;7.75;;;4.22;;
25153;SDS011;47555;51.038;6.280;2022-10-22T05:02:37;7.40;;;3.85;;
25153;SDS011;47555;51.038;6.280;2022-10-22T05:05:03;7.28;;;4.13;;
25153;SDS011;47555;51.038;6.280;2022-10-22T05:07:28;8.10;;;4.50;;
25153;SDS011;47555;51.038;6.280;2022-10-22T05:09:54;5.75;;;3.78;;
25153;SDS011;47555;51.038;6.280;2022-10-22T05:12:19;5.60;;;4.35;;
25153;SDS011;47555;51.038;6.280;2022-10-22T05:14:45;8.90;;;4.18;;
25153;SDS011;47555;51.038;6.280;2022-10-22T05:17:11;5.88;;;4.15;;
25153;SDS011;47555;51.038;6.280;2022-10-22T05:19:36;6.95;;;3.80;;
25153;SDS011;47555;51.038;6.280;2022-10-22T05:22:02;4.95;;;3.33;;
25153;SDS011;47555;51.038;6.280;2022-10-22T05:24:29;5.35;;;3.55;;
25153;SDS011;47555;51.038;6.280;2022-10-22T05:26:56;7.63;;;4.13;;
25153;SDS011;47555;51.038;6.280;2022-10-22T05:29:23;6.80;;;3.90;;
25153;SDS011;47555;51.038;6.280;2022-10-22T05:31:50;10.38;;;3.83;;
25153;SDS011;47555;51.038;6.280;2022-10-22T05:34:16;4.95;;;3.30;;
25153;SDS011;47555;51.038;6.280;2022-10-22T05:36:41;4.40;;;3.22;;
25153;SDS011;47555;51.038;6.280;2022-10-22T05:39:07;6.00;;;3.63;;
25153;SDS011;47555;51.038;6.280;2022-10-22T05:41:33;6.90;;;4.50;;
25153;SDS011;47555;51.038;6.280;2022-10-22T05:44:00;5.97;;;3.08;;
25153;SDS011;47555;51.038;6.280;2022-10-22T05:46:27;7.13;;;3.10;;
25153;SDS011;47555;51.038;6.280;2022-10-22T05:48:58;5.78;;;3.60;;
25153;SDS011;47555;51.038;6.280;2022-10-22T05:51:26;5.82;;;3.28;;
25153;SDS011;47555;51.038;6.280;2022-10-22T05:53:54;7.35;;;3.65;;
25153;SDS011;47555;51.038;6.280;2022-10-22T05:56:22;6.70;;;3.28;;
25153;SDS011;47555;51.038;6.280;2022-10-22T05:58:48;6.78;;;3.33;;
25153;SDS011;47555;51.038;6.280;2022-10-22T06:01:16;6.97;;;3.22;;
25153;SDS011;47555;51.038;6.280;2022-10-22T06:03:44;5.85;;;2.90;;
25153;SDS011;47555;51.038;6.280;2022-10-22T06:08:44;6.45;;;3.22;;
25153;SDS011;47555;51.038;6.280;2022-10-22T06:11:14;4.05;;;2.70;;
25153;SDS011;47555;51.038;6.280;2022-10-22T06:13:41;6.15;;;3.13;;
25153;SDS011;47555;51.038;6.280;2022-10-22T06:16:08;6.70;;;2.95;;
25153;SDS011;47555;51.038;6.280;2022-10-22T06:18:34;7.15;;;3.03;;
25153;SDS011;47555;51.038;6.280;2022-10-22T06:21:02;6.07;;;2.70;;
25153;SDS011;47555;51.038;6.280;2022-10-22T06:23:29;5.90;;;3.17;;
25153;SDS011;47555;51.038;6.280;2022-10-22T06:25:56;6.30;;;3.05;;
25153;SDS011;47555;51.038;6.280;2022-10-22T06:28:23;9.90;;;3.35;;
25153;SDS011;47555;51.038;6.280;2022-10-22T06:30:49;6.68;;;3.15;;
25153;SDS011;47555;51.038;6.280;2022-10-22T06:33:14;5.10;;;3.03;;
25153;SDS011;47555;51.038;6.280;2022-10-22T06:35:40;5.03;;;2.72;;
25153;SDS011;47555;51.038;6.280;2022-10-22T06:38:05;7.80;;;3.03;;
25153;SDS011;47555;51.038;6.280;2022-10-22T06:40:31;7.47;;;2.55;;
25153;SDS011;47555;51.038;6.280;2022-10-22T06:43:00;5.65;;;2.33;;
25153;SDS011;47555;51.038;6.280;2022-10-22T06:45:26;7.15;;;2.20;;
25153;SDS011;47555;51.038;6.280;2022-10-22T06:47:51;5.38;;;2.58;;
25153;SDS011;47555;51.038;6.280;2022-10-22T06:50:17;3.10;;;2.38;;
25153;SDS011;47555;51.038;6.280;2022-10-22T06:52:43;6.60;;;2.38;;
25153;SDS011;47555;51.038;6.280;2022-10-22T06:55:09;4.10;;;2.67;;
25153;SDS011;47555;51.038;6.280;2022-10-22T06:57:35;7.72;;;3.45;;
25153;SDS011;47555;51.038;6.280;2022-10-22T07:00:00;8.25;;;3.58;;
25153;SDS011;47555;51.038;6.280;2022-10-22T07:02:26;6.25;;;3.00;;
25153;SDS011;47555;51.038;6.280;2022-10-22T07:04:51;6.05;;;2.95;;
25153;SDS011;47555;51.038;6.280;2022-10-22T07:07:17;6.72;;;2.13;;
25153;SDS011;47555;51.038;6.280;2022-10-22T07:09:42;4.07;;;1.88;;
25153;SDS011;47555;51.038;6.280;2022-10-22T07:12:10;4.72;;;1.90;;
25153;SDS011;47555;51.038;6.280;2022-10-22T07:14:37;4.10;;;1.73;;
25153;SDS011;47555;51.038;6.280;2022-10-22T07:17:03;5.60;;;2.00;;
25153;SDS011;47555;51.038;6.280;2022-10-22T07:19:28;4.20;;;1.67;;
25153;SDS011;47555;51.038;6.280;2022-10-22T07:21:55;7.28;;;1.92;;
25153;SDS011;47555;51.038;6.280;2022-10-22T07:24:21;6.85;;;2.00;;
25153;SDS011;47555;51.038;6.280;2022-10-22T07:26:46;5.55;;;2.15;;
25153;SDS011;47555;51.038;6.280;2022-10-22T07:29:12;7.70;;;1.90;;
25153;SDS011;47555;51.038;6.280;2022-10-22T07:31:39;3.80;;;1.83;;
25153;SDS011;47555;51.038;6.280;2022-10-22T07:34:05;9.40;;;1.98;;
25153;SDS011;47555;51.038;6.280;2022-10-22T07:36:31;3.70;;;1.60;;
25153;SDS011;47555;51.038;6.280;2022-10-22T07:38:57;4.43;;;1.50;;
25153;SDS011;47555;51.038;6.280;2022-10-22T07:41:24;3.30;;;1.70;;
25153;SDS011;47555;51.038;6.280;2022-10-22T07:43:51;5.10;;;1.73;;
25153;SDS011;47555;51.038;6.280;2022-10-22T07:46:16;3.70;;;1.60;;
25153;SDS011;47555;51.038;6.280;2022-10-22T07:48:45;4.05;;;1.30;;
25153;SDS011;47555;51.038;6.280;2022-10-22T07:51:11;3.28;;;1.80;;
25153;SDS011;47555;51.038;6.280;2022-10-22T07:53:39;3.90;;;1.80;;
25153;SDS011;47555;51.038;6.280;2022-10-22T07:56:04;8.18;;;2.08;;
25153;SDS011;47555;51.038;6.280;2022-10-22T07:58:31;7.13;;;2.67;;
25153;SDS011;47555;51.038;6.280;2022-10-22T08:00:57;4.47;;;1.60;;
25153;SDS011;47555;51.038;6.280;2022-10-22T08:03:27;4.90;;;1.70;;
25153;SDS011;47555;51.038;6.280;2022-10-22T08:05:53;6.32;;;1.40;;
25153;SDS011;47555;51.038;6.280;2022-10-22T08:08:19;5.68;;;1.77;;
25153;SDS011;47555;51.038;6.280;2022-10-22T08:10:46;5.57;;;1.70;;
25153;SDS011;47555;51.038;6.280;2022-10-22T08:13:14;8.57;;;1.58;;
25153;SDS011;47555;51.038;6.280;2022-10-22T08:15:40;7.20;;;1.83;;
25153;SDS011;47555;51.038;6.280;2022-10-22T08:18:07;5.88;;;2.10;;
25153;SDS011;47555;51.038;6.280;2022-10-22T08:20:32;4.93;;;1.77;;
25153;SDS011;47555;51.038;6.280;2022-10-22T08:22:58;2.60;;;1.52;;
25153;SDS011;47555;51.038;6.280;2022-10-22T08:25:24;4.68;;;1.83;;
25153;SDS011;47555;51.038;6.280;2022-10-22T08:27:50;4.30;;;1.75;;
25153;SDS011;47555;51.038;6.280;2022-10-22T08:30:16;4.30;;;1.55;;
25153;SDS011;47555;51.038;6.280;2022-10-22T08:32:41;6.13;;;1.48;;
25153;SDS011;47555;51.038;6.280;2022-10-22T08:35:07;4.00;;;1.52;;
25153;SDS011;47555;51.038;6.280;2022-10-22T08:37:33;3.42;;;1.20;;
25153;SDS011;47555;51.038;6.280;2022-10-22T08:40:02;4.85;;;1.65;;
25153;SDS011;47555;51.038;6.280;2022-10-22T08:50:46;6.30;;;1.65;;
25153;SDS011;47555;51.038;6.280;2022-10-22T08:53:18;4.80;;;1.27;;
25153;SDS011;47555;51.038;6.280;2022-10-22T08:55:51;3.63;;;1.42;;
25153;SDS011;47555;51.038;6.280;2022-10-22T09:01:12;4.70;;;1.40;;
25153;SDS011;47555;51.038;6.280;2022-10-22T09:03:43;4.45;;;1.63;;
25153;SDS011;47555;51.038;6.280;2022-10-22T09:06:17;3.30;;;1.40;;
25153;SDS011;47555;51.038;6.280;2022-10-22T09:08:44;5.82;;;1.70;;
25153;SDS011;47555;51.038;6.280;2022-10-22T09:13:36;5.10;;;1.40;;
25153;SDS011;47555;51.038;6.280;2022-10-22T09:16:17;6.35;;;1.58;;
25153;SDS011;47555;51.038;6.280;2022-10-22T09:18:52;3.30;;;1.55;;
25153;SDS011;47555;51.038;6.280;2022-10-22T09:24:03;1.65;;;1.40;;
25153;SDS011;47555;51.038;6.280;2022-10-22T09:26:38;5.25;;;2.17;;
25153;SDS011;47555;51.038;6.280;2022-10-22T09:29:05;4.78;;;1.70;;
25153;SDS011;47555;51.038;6.280;2022-10-22T09:31:31;7.18;;;1.73;;
25153;SDS011;47555;51.038;6.280;2022-10-22T09:33:58;4.05;;;1.58;;
25153;SDS011;47555;51.038;6.280;2022-10-22T09:36:29;6.38;;;1.65;;
25153;SDS011;47555;51.038;6.280;2022-10-22T09:38:55;4.85;;;2.00;;
25153;SDS011;47555;51.038;6.280;2022-10-22T09:41:26;6.30;;;1.63;;
25153;SDS011;47555;51.038;6.280;2022-10-22T09:43:56;4.75;;;1.60;;
25153;SDS011;47555;51.038;6.280;2022-10-22T09:46:23;5.95;;;1.77;;
25153;SDS011;47555;51.038;6.280;2022-10-22T09:49:04;6.22;;;1.63;;
25153;SDS011;47555;51.038;6.280;2022-10-22T09:51:50;7.20;;;1.77;;
25153;SDS011;47555;51.038;6.280;2022-10-22T09:54:23;2.90;;;1.05;;
25153;SDS011;47555;51.038;6.280;2022-10-22T09:56:51;5.45;;;1.50;;
25153;SDS011;47555;51.038;6.280;2022-10-22T09:59:42;3.13;;;1.45;;
25153;SDS011;47555;51.038;6.280;2022-10-22T10:02:13;5.50;;;1.95;;
25153;SDS011;47555;51.038;6.280;2022-10-22T10:04:46;6.95;;;1.60;;
25153;SDS011;47555;51.038;6.280;2022-10-22T10:07:20;4.88;;;1.50;;
25153;SDS011;47555;51.038;6.280;2022-10-22T10:09:51;4.78;;;1.45;;
25153;SDS011;47555;51.038;6.280;2022-10-22T10:15:32;5.40;;;1.40;;
25153;SDS011;47555;51.038;6.280;2022-10-22T10:18:34;4.28;;;1.20;;
25153;SDS011;47555;51.038;6.280;2022-10-22T10:24:02;5.03;;;1.63;;
25153;SDS011;47555;51.038;6.280;2022-10-22T10:26:55;3.80;;;1.42;;
25153;SDS011;47555;51.038;6.280;2022-10-22T10:29:30;4.60;;;1.60;;
25153;SDS011;47555;51.038;6.280;2022-10-22T10:35:25;6.93;;;1.40;;
25153;SDS011;47555;51.038;6.280;2022-10-22T10:38:11;3.20;;;1.45;;
25153;SDS011;47555;51.038;6.280;2022-10-22T10:41:12;5.85;;;1.50;;
25153;SDS011;47555;51.038;6.280;2022-10-22T10:44:00;3.95;;;1.08;;
25153;SDS011;47555;51.038;6.280;2022-10-22T10:49:25;4.15;;;1.33;;
25153;SDS011;47555;51.038;6.280;2022-10-22T10:54:44;6.60;;;1.50;;
25153;SDS011;47555;51.038;6.280;2022-10-22T10:57:29;4.28;;;1.10;;
25153;SDS011;47555;51.038;6.280;2022-10-22T11:08:11;3.05;;;1.17;;
25153;SDS011;47555;51.038;6.280;2022-10-22T11:10:58;3.42;;;1.30;;
25153;SDS011;47555;51.038;6.280;2022-10-22T11:13:35;4.30;;;1.38;;
25153;SDS011;47555;51.038;6.280;2022-10-22T11:16:11;7.30;;;1.30;;
25153;SDS011;47555;51.038;6.280;2022-10-22T11:22:00;4.50;;;1.55;;
25153;SDS011;47555;51.038;6.280;2022-10-22T11:24:54;8.07;;;1.40;;
25153;SDS011;47555;51.038;6.280;2022-10-22T11:27:53;1.65;;;1.00;;
25153;SDS011;47555;51.038;6.280;2022-10-22T11:30:42;4.00;;;1.00;;
25153;SDS011;47555;51.038;6.280;2022-10-22T11:33:14;5.32;;;1.17;;
25153;SDS011;47555;51.038;6.280;2022-10-22T11:35:43;2.83;;;1.30;;
25153;SDS011;47555;51.038;6.280;2022-10-22T11:38:11;4.38;;;1.20;;
25153;SDS011;47555;51.038;6.280;2022-10-22T11:40:47;2.90;;;1.05;;
25153;SDS011;47555;51.038;6.280;2022-10-22T11:43:34;4.80;;;1.02;;
25153;SDS011;47555;51.038;6.280;2022-10-22T11:48:42;2.58;;;1.05;;
25153;SDS011;47555;51.038;6.280;2022-10-22T11:51:27;4.90;;;1.23;;
25153;SDS011;47555;51.038;6.280;2022-10-22T11:54:02;3.90;;;1.05;;
25153;SDS011;47555;51.038;6.280;2022-10-22T12:07:56;5.00;;;1.13;;
25153;SDS011;47555;51.038;6.280;2022-10-22T12:10:35;2.67;;;1.17;;
25153;SDS011;47555;51.038;6.280;2022-10-22T12:13:21;3.90;;;1.40;;
25153;SDS011;47555;51.038;6.280;2022-10-22T12:16:00;3.87;;;1.00;;
25153;SDS011;47555;51.038;6.280;2022-10-22T12:18:33;4.07;;;1.50;;
25153;SDS011;47555;51.038;6.280;2022-10-22T12:21:05;3.38;;;1.05;;
25153;SDS011;47555;51.038;6.280;2022-10-22T12:23:31;1.50;;;0.85;;
25153;SDS011;47555;51.038;6.280;2022-10-22T12:25:59;3.80;;;1.48;;
25153;SDS011;47555;51.038;6.280;2022-10-22T12:28:24;4.40;;;1.00;;
25153;SDS011;47555;51.038;6.280;2022-10-22T12:30:50;6.95;;;1.02;;
25153;SDS011;47555;51.038;6.280;2022-10-22T12:33:20;3.58;;;1.10;;
25153;SDS011;47555;51.038;6.280;2022-10-22T12:35:47;6.43;;;1.20;;
25153;SDS011;47555;51.038;6.280;2022-10-22T12:38:17;7.85;;;1.35;;
25153;SDS011;47555;51.038;6.280;2022-10-22T12:40:45;5.25;;;0.93;;
25153;SDS011;47555;51.038;6.280;2022-10-22T12:43:13;1.83;;;0.95;;
25153;SDS011;47555;51.038;6.280;2022-10-22T12:45:41;4.05;;;1.08;;
25153;SDS011;47555;51.038;6.280;2022-10-22T12:48:20;3.33;;;0.90;;
25153;SDS011;47555;51.038;6.280;2022-10-22T12:50:52;1.00;;;0.68;;
25153;SDS011;47555;51.038;6.280;2022-10-22T12:55:49;3.00;;;0.90;;
25153;SDS011;47555;51.038;6.280;2022-10-22T12:58:18;4.10;;;1.20;;
25153;SDS011;47555;51.038;6.280;2022-10-22T13:00:53;4.07;;;1.10;;
25153;SDS011;47555;51.038;6.280;2022-10-22T13:03:26;3.00;;;1.00;;
25153;SDS011;47555;51.038;6.280;2022-10-22T13:06:10;2.85;;;0.82;;
25153;SDS011;47555;51.038;6.280;2022-10-22T13:09:11;4.43;;;1.10;;
25153;SDS011;47555;51.038;6.280;2022-10-22T13:11:47;3.85;;;1.10;;
25153;SDS011;47555;51.038;6.280;2022-10-22T13:14:32;4.35;;;0.80;;
25153;SDS011;47555;51.038;6.280;2022-10-22T13:22:24;1.35;;;0.88;;
25153;SDS011;47555;51.038;6.280;2022-10-22T13:24:50;3.03;;;1.35;;
25153;SDS011;47555;51.038;6.280;2022-10-22T13:27:15;1.42;;;0.70;;
25153;SDS011;47555;51.038;6.280;2022-10-22T13:29:41;1.70;;;0.80;;
25153;SDS011;47555;51.038;6.280;2022-10-22T13:34:58;2.80;;;1.02;;
25153;SDS011;47555;51.038;6.280;2022-10-22T13:37:25;2.65;;;0.95;;
25153;SDS011;47555;51.038;6.280;2022-10-22T13:39:53;2.15;;;1.20;;
25153;SDS011;47555;51.038;6.280;2022-10-22T13:42:19;3.40;;;1.00;;
25153;SDS011;47555;51.038;6.280;2022-10-22T13:44:44;3.78;;;0.80;;
25153;SDS011;47555;51.038;6.280;2022-10-22T13:47:26;3.75;;;0.90;;
25153;SDS011;47555;51.038;6.280;2022-10-22T13:49:57;4.03;;;1.00;;
25153;SDS011;47555;51.038;6.280;2022-10-22T13:52:27;2.08;;;0.82;;
25153;SDS011;47555;51.038;6.280;2022-10-22T13:55:10;1.85;;;0.80;;
25153;SDS011;47555;51.038;6.280;2022-10-22T13:57:37;4.20;;;1.08;;
25153;SDS011;47555;51.038;6.280;2022-10-22T14:00:03;1.15;;;0.80;;
25153;SDS011;47555;51.038;6.280;2022-10-22T14:02:29;2.67;;;0.90;;
25153;SDS011;47555;51.038;6.280;2022-10-22T14:04:55;2.72;;;0.90;;
25153;SDS011;47555;51.038;6.280;2022-10-22T14:07:26;2.53;;;1.00;;
25153;SDS011;47555;51.038;6.280;2022-10-22T14:09:52;2.13;;;0.80;;
25153;SDS011;47555;51.038;6.280;2022-10-22T14:12:18;3.47;;;1.80;;
25153;SDS011;47555;51.038;6.280;2022-10-22T14:14:43;2.83;;;0.90;;
25153;SDS011;47555;51.038;6.280;2022-10-22T14:17:12;3.97;;;0.90;;
25153;SDS011;47555;51.038;6.280;2022-10-22T14:19:41;1.73;;;0.77;;
25153;SDS011;47555;51.038;6.280;2022-10-22T14:22:12;2.08;;;0.88;;
25153;SDS011;47555;51.038;6.280;2022-10-22T14:24:38;2.03;;;0.60;;
25153;SDS011;47555;51.038;6.280;2022-10-22T14:27:04;4.32;;;1.08;;
25153;SDS011;47555;51.038;6.280;2022-10-22T14:29:30;1.52;;;0.70;;
25153;SDS011;47555;51.038;6.280;2022-10-22T14:31:55;3.60;;;0.80;;
25153;SDS011;47555;51.038;6.280;2022-10-22T14:34:21;1.88;;;1.00;;
25153;SDS011;47555;51.038;6.280;2022-10-22T14:36:46;2.47;;;0.80;;
25153;SDS011;47555;51.038;6.280;2022-10-22T14:39:12;1.48;;;0.80;;
25153;SDS011;47555;51.038;6.280;2022-10-22T14:41:38;3.03;;;0.80;;
25153;SDS011;47555;51.038;6.280;2022-10-22T14:44:05;2.53;;;0.88;;
25153;SDS011;47555;51.038;6.280;2022-10-22T14:46:31;2.55;;;0.80;;
25153;SDS011;47555;51.038;6.280;2022-10-22T14:48:57;1.73;;;0.80;;
25153;SDS011;47555;51.038;6.280;2022-10-22T14:51:22;1.85;;;0.90;;
25153;SDS011;47555;51.038;6.280;2022-10-22T14:53:48;3.13;;;0.90;;
25153;SDS011;47555;51.038;6.280;2022-10-22T14:56:15;2.35;;;0.95;;
25153;SDS011;47555;51.038;6.280;2022-10-22T14:58:42;2.15;;;0.85;;
25153;SDS011;47555;51.038;6.280;2022-10-22T15:01:10;2.92;;;0.85;;
25153;SDS011;47555;51.038;6.280;2022-10-22T15:03:36;2.00;;;0.85;;
25153;SDS011;47555;51.038;6.280;2022-10-22T15:06:02;2.75;;;1.05;;
25153;SDS011;47555;51.038;6.280;2022-10-22T15:08:28;2.60;;;0.90;;
25153;SDS011;47555;51.038;6.280;2022-10-22T15:11:01;1.98;;;0.82;;
25153;SDS011;47555;51.038;6.280;2022-10-22T15:13:28;2.55;;;0.73;;
25153;SDS011;47555;51.038;6.280;2022-10-22T15:15:55;2.65;;;0.85;;
25153;SDS011;47555;51.038;6.280;2022-10-22T15:18:21;3.53;;;1.00;;
25153;SDS011;47555;51.038;6.280;2022-10-22T15:20:53;2.30;;;0.80;;
25153;SDS011;47555;51.038;6.280;2022-10-22T15:23:20;1.88;;;0.70;;
25153;SDS011;47555;51.038;6.280;2022-10-22T15:25:45;1.98;;;1.00;;
25153;SDS011;47555;51.038;6.280;2022-10-22T15:28:11;3.92;;;1.20;;
25153;SDS011;47555;51.038;6.280;2022-10-22T15:30:36;1.45;;;0.90;;
25153;SDS011;47555;51.038;6.280;2022-10-22T15:33:02;3.70;;;0.85;;
25153;SDS011;47555;51.038;6.280;2022-10-22T15:35:27;1.83;;;0.90;;
25153;SDS011;47555;51.038;6.280;2022-10-22T15:37:53;4.53;;;1.10;;
25153;SDS011;47555;51.038;6.280;2022-10-22T15:40:18;3.08;;;1.17;;
25153;SDS011;47555;51.038;6.280;2022-10-22T15:42:44;2.60;;;0.98;;
25153;SDS011;47555;51.038;6.280;2022-10-22T15:45:10;3.60;;;1.13;;
25153;SDS011;47555;51.038;6.280;2022-10-22T15:47:36;1.48;;;0.90;;
25153;SDS011;47555;51.038;6.280;2022-10-22T15:50:01;1.27;;;0.85;;
25153;SDS011;47555;51.038;6.280;2022-10-22T15:52:27;2.15;;;1.00;;
25153;SDS011;47555;51.038;6.280;2022-10-22T15:54:54;0.85;;;0.80;;
25153;SDS011;47555;51.038;6.280;2022-10-22T15:57:20;3.97;;;1.00;;
25153;SDS011;47555;51.038;6.280;2022-10-22T15:59:45;0.88;;;0.88;;
25153;SDS011;47555;51.038;6.280;2022-10-22T16:02:11;2.30;;;1.00;;
25153;SDS011;47555;51.038;6.280;2022-10-22T16:04:37;1.17;;;1.00;;
25153;SDS011;47555;51.038;6.280;2022-10-22T16:07:03;1.67;;;0.90;;
25153;SDS011;47555;51.038;6.280;2022-10-22T16:09:28;1.17;;;0.82;;
25153;SDS011;47555;51.038;6.280;2022-10-22T16:11:54;1.75;;;1.10;;
25153;SDS011;47555;51.038;6.280;2022-10-22T16:14:21;2.53;;;0.85;;
25153;SDS011;47555;51.038;6.280;2022-10-22T16:16:48;1.55;;;0.88;;
25153;SDS011;47555;51.038;6.280;2022-10-22T16:19:15;1.80;;;0.93;;
25153;SDS011;47555;51.038;6.280;2022-10-22T16:21:43;3.33;;;1.27;;
25153;SDS011;47555;51.038;6.280;2022-10-22T16:24:08;2.95;;;1.45;;
25153;SDS011;47555;51.038;6.280;2022-10-22T16:26:36;4.15;;;2.22;;
25153;SDS011;47555;51.038;6.280;2022-10-22T16:29:02;3.35;;;2.13;;
25153;SDS011;47555;51.038;6.280;2022-10-22T16:31:28;3.53;;;2.50;;
25153;SDS011;47555;51.038;6.280;2022-10-22T16:33:54;5.63;;;3.53;;
25153;SDS011;47555;51.038;6.280;2022-10-22T16:36:20;5.07;;;3.33;;
25153;SDS011;47555;51.038;6.280;2022-10-22T16:38:46;7.18;;;3.70;;
25153;SDS011;47555;51.038;6.280;2022-10-22T16:41:19;6.18;;;4.05;;